Time;durP1;ratioP1;P1;durP2;ratioP2;P2;SDS_P1;SDS_P2;PMS_P1;PMS_P2;Temp;Humidity;BMP_temperature;BMP_pressure;BME280_temperature;BME280_humidity;BME280_pressure;Samples;Min_cycle;Max_cycle;Signal;HPM_P1;HPM_P2
2022/11/05 00:34:59;;;;;;;29.30;21.30;;;;;;;8.02;96.09;98513.08;435565;1285;143125;-63
2022/11/05 00:45:07;;;;;;;30.00;20.60;;;;;;;8.00;96.29;98512.15;434788;1281;142935;-64
2022/11/05 00:55:12;;;;;;;26.90;21.40;;;;;;;7.94;96.92;98515.94;435817;1283;144149;-64
2022/11/05 01:05:18;;;;;;;26.20;20.10;;;;;;;7.89;97.54;98517.16;435661;1284;142897;-64
2022/11/05 01:15:24;;;;;;;26.50;21.60;;;;;;;7.85;97.79;98524.54;435061;1276;144478;-64
2022/11/05 01:25:30;;;;;;;30.60;21.30;;;;;;;7.86;98.17;98533.02;435890;1282;143516;-64
2022/11/05 01:35:35;;;;;;;29.60;21.10;;;;;;;7.87;98.51;98545.89;435028;1290;145175;-64
2022/11/05 01:45:42;;;;;;;30.30;22.00;;;;;;;7.87;98.82;98544.79;435796;1284;142376;-64
2022/11/05 01:55:53;;;;;;;25.40;20.90;;;;;;;7.92;99.36;98538.21;435992;1277;142462;-63
2022/11/05 02:06:00;;;;;;;36.10;22.20;;;;;;;7.86;99.51;98535.48;435262;1284;142918;-63
2022/11/05 02:16:14;;;;;;;24.60;20.20;;;;;;;7.76;99.72;98540.70;436063;1277;142186;-63
2022/11/05 02:26:58;;;;;;;26.40;21.00;;;;;;;7.69;99.86;98551.44;435962;1281;142745;-63
2022/11/05 02:37:14;;;;;;;27.40;21.50;;;;;;;7.75;100.00;98562.66;435935;1285;142348;-63
2022/11/05 02:47:29;;;;;;;28.20;20.50;;;;;;;7.74;100.00;98562.73;435972;1283;143242;-63
2022/11/05 02:57:37;;;;;;;27.50;21.20;;;;;;;7.73;100.00;98555.34;435551;1283;142833;-63
2022/11/05 03:07:53;;;;;;;30.40;22.90;;;;;;;7.72;100.00;98570.88;435889;1284;142249;-62
2022/11/05 03:18:09;;;;;;;26.80;20.70;;;;;;;7.75;100.00;98595.48;435256;1283;142621;-63
2022/11/05 03:28:17;;;;;;;27.70;21.30;;;;;;;7.87;100.00;98623.39;435938;1281;143183;-63
2022/11/05 03:38:27;;;;;;;23.30;18.20;;;;;;;7.98;100.00;98631.37;435950;1284;143186;-63
2022/11/05 03:48:38;;;;;;;22.50;17.70;;;;;;;8.06;100.00;98633.78;435521;1277;198430;-63
2022/11/05 03:58:45;;;;;;;20.10;17.20;;;;;;;8.14;100.00;98659.16;436039;1277;143781;-63
2022/11/05 04:24:07;;;;;;;15.70;13.90;;;;;;;8.31;100.00;98685.39;436041;1284;142200;-63
2022/11/05 04:40:04;;;;;;;13.40;11.50;;;;;;;8.43;100.00;98699.44;435962;1284;144777;-63
2022/11/05 04:50:11;;;;;;;12.50;10.70;;;;;;;8.47;100.00;98705.58;433694;1277;142276;-63
2022/11/05 05:00:17;;;;;;;11.60;10.40;;;;;;;8.48;100.00;98711.47;435204;1278;142709;-63
2022/11/05 05:10:23;;;;;;;14.10;10.50;;;;;;;8.48;100.00;98718.10;435957;1284;144762;-63
2022/11/05 05:30:52;;;;;;;14.20;12.60;;;;;;;8.57;100.00;98734.80;436066;1284;145360;-63
2022/11/05 05:41:03;;;;;;;14.70;13.10;;;;;;;8.57;100.00;98755.52;435958;1285;141809;-63
2022/11/05 05:51:11;;;;;;;14.80;12.60;;;;;;;8.57;100.00;98761.29;435216;1283;142831;-63
2022/11/05 06:01:18;;;;;;;18.00;14.40;;;;;;;8.59;100.00;98770.40;435935;1284;142614;-63
2022/11/05 06:11:25;;;;;;;16.60;12.30;;;;;;;8.61;100.00;98787.88;435935;1277;143328;-63
2022/11/05 06:21:32;;;;;;;16.50;14.10;;;;;;;8.65;100.00;98801.56;435554;1284;198112;-63
2022/11/05 06:31:37;;;;;;;17.50;15.30;;;;;;;8.71;100.00;98807.59;436022;1281;143743;-63
2022/11/05 06:41:44;;;;;;;17.40;14.80;;;;;;;8.81;100.00;98810.08;435301;1277;145309;-63
2022/11/05 06:52:10;;;;;;;22.90;17.70;;;;;;;8.88;100.00;98837.36;435819;1284;147839;-64
2022/11/05 07:02:17;;;;;;;40.10;28.40;;;;;;;8.81;100.00;98859.79;435982;1283;144085;-63
2022/11/05 07:12:22;;;;;;;46.60;31.50;;;;;;;8.74;100.00;98868.84;435208;1275;141992;-64
2022/11/05 07:22:28;;;;;;;52.90;32.70;;;;;;;8.69;100.00;98896.55;436056;1284;144295;-64
2022/11/05 07:32:38;;;;;;;59.20;37.90;;;;;;;8.60;100.00;98924.41;435258;1284;142946;-64
2022/11/05 07:42:45;;;;;;;65.10;37.70;;;;;;;8.61;100.00;98942.25;435894;1285;142057;-64
2022/11/05 07:52:51;;;;;;;55.80;32.80;;;;;;;8.78;100.00;98958.95;435976;1284;143490;-63
2022/11/05 08:03:02;;;;;;;52.00;31.80;;;;;;;9.04;100.00;98953.58;435304;1278;142491;-63
2022/11/05 08:13:13;;;;;;;52.30;33.80;;;;;;;9.19;100.00;98951.30;435862;1287;143723;-63
2022/11/05 08:23:19;;;;;;;46.20;30.70;;;;;;;9.24;100.00;98969.64;435817;1280;143705;-64
2022/11/05 08:33:26;;;;;;;43.60;27.40;;;;;;;9.21;100.00;98982.61;434901;1284;145547;-62
2022/11/05 08:43:31;;;;;;;37.60;25.60;;;;;;;9.25;100.00;98989.32;435786;1278;142027;-63
2022/11/05 08:53:37;;;;;;;35.30;21.60;;;;;;;9.20;99.46;99012.08;435100;1278;144097;-64
2022/11/05 09:03:43;;;;;;;40.40;24.00;;;;;;;9.07;99.51;99033.81;435870;1277;142991;-63
2022/11/05 09:13:48;;;;;;;28.60;19.20;;;;;;;9.18;99.28;99048.69;435825;1282;144410;-64
2022/11/05 09:23:54;;;;;;;24.80;18.70;;;;;;;9.17;98.82;99069.69;435134;1283;143538;-63
2022/11/05 09:34:00;;;;;;;25.70;19.10;;;;;;;9.22;98.98;99082.45;435831;1290;185891;-62
2022/11/05 09:44:11;;;;;;;24.40;18.50;;;;;;;9.35;98.51;99092.43;435835;1280;199105;-62
2022/11/05 09:54:17;;;;;;;21.20;17.00;;;;;;;9.29;98.09;99089.19;435067;1278;143385;-63
2022/11/05 10:04:27;;;;;;;19.90;16.90;;;;;;;9.21;97.89;99090.38;435798;1285;142598;-63
2022/11/05 10:14:37;;;;;;;21.60;18.70;;;;;;;9.12;97.63;99101.61;435013;1284;142896;-63
2022/11/05 10:24:46;;;;;;;22.80;17.10;;;;;;;9.07;97.88;99111.17;435699;1284;142966;-64
2022/11/05 10:34:54;;;;;;;23.60;19.80;;;;;;;9.15;97.98;99126.77;435597;1278;145025;-63
2022/11/05 10:45:09;;;;;;;18.70;16.80;;;;;;;9.10;97.54;99131.26;434930;1285;142251;-63
2022/11/05 10:55:20;;;;;;;16.80;14.50;;;;;;;8.99;97.23;99143.16;435864;1283;142728;-63
2022/11/05 11:05:29;;;;;;;15.00;13.30;;;;;;;8.92;97.19;99153.54;435748;1283;142821;-62
2022/11/05 11:15:36;;;;;;;17.70;13.80;;;;;;;8.90;97.05;99160.98;435372;1284;197815;-63
2022/11/05 11:25:47;;;;;;;14.70;12.60;;;;;;;8.94;97.18;99160.40;435800;1283;185893;-62
2022/11/05 11:35:53;;;;;;;14.30;12.80;;;;;;;8.96;97.11;99167.58;435031;1285;165013;-62
2022/11/05 11:46:00;;;;;;;14.10;11.10;;;;;;;8.90;96.85;99169.38;435792;1284;142739;-62
2022/11/05 11:56:18;;;;;;;14.80;12.50;;;;;;;8.90;96.82;99173.92;435802;1284;144032;-62
2022/11/05 12:06:33;;;;;;;12.30;11.00;;;;;;;8.89;96.62;99184.78;435101;1284;194731;-62
2022/11/05 12:16:55;;;;;;;12.10;10.10;;;;;;;8.83;96.77;99194.92;435830;1283;142625;-62
2022/11/05 12:27:13;;;;;;;10.50;9.40;;;;;;;8.83;96.29;99202.83;435092;1278;143003;-62
2022/11/05 12:37:30;;;;;;;9.50;8.30;;;;;;;8.77;96.06;99208.42;435886;1283;141359;-63
2022/11/05 12:47:58;;;;;;;9.90;8.30;;;;;;;8.78;95.89;99214.98;435029;1277;143725;-62
2022/11/05 12:58:12;;;;;;;9.40;8.30;;;;;;;8.80;95.64;99226.58;435811;1278;142658;-61
2022/11/05 13:08:22;;;;;;;8.70;7.70;;;;;;;8.80;95.53;99235.45;435763;1283;142627;-61
2022/11/05 13:18:34;;;;;;;8.50;7.80;;;;;;;8.79;95.38;99254.02;435265;1284;215072;-62
2022/11/05 13:28:47;;;;;;;7.40;6.00;;;;;;;8.76;95.20;99269.19;435712;1285;143253;-62
2022/11/05 13:39:05;;;;;;;4.40;4.00;;;;;;;8.68;94.97;99297.80;434962;1282;142402;-62
2022/11/05 13:49:21;;;;;;;;;;;;;;;8.58;94.30;99317.91;435763;1291;143430;-62
2022/11/05 13:59:46;;;;;;;4.40;3.20;;;;;;;8.51;94.18;99321.11;436122;1290;129169;-62
2022/11/05 14:09:58;;;;;;;3.80;3.10;;;;;;;8.54;93.86;99330.89;435592;1288;209932;-62
2022/11/05 14:20:38;;;;;;;3.60;2.80;;;;;;;8.49;93.43;99342.70;436007;1284;142363;-61
2022/11/05 14:30:46;;;;;;;6.40;3.20;;;;;;;8.49;93.05;99365.55;435703;1280;215722;-61
2022/11/05 14:41:01;;;;;;;4.90;3.20;;;;;;;8.47;92.84;99369.81;435888;1287;141163;-62
2022/11/05 14:51:26;;;;;;;3.30;3.00;;;;;;;8.44;92.48;99375.92;435223;1273;141856;-62
2022/11/05 15:01:54;;;;;;;7.40;2.80;;;;;;;8.43;92.61;99386.66;435899;1284;142176;-63
2022/11/05 15:12:08;;;;;;;3.10;2.50;;;;;;;8.43;92.52;99402.33;435061;1287;140551;-63
2022/11/05 15:22:28;;;;;;;4.50;3.70;;;;;;;8.44;92.52;99420.96;435977;1289;144428;-62
2022/11/05 15:32:35;;;;;;;8.80;3.20;;;;;;;8.45;92.41;99433.66;435173;1283;141359;-63
2022/11/05 15:42:43;;;;;;;9.30;4.30;;;;;;;8.42;92.64;99435.19;435885;1284;141403;-63
2022/11/05 15:52:53;;;;;;;6.70;4.10;;;;;;;8.40;93.08;99453.06;435814;1289;140423;-61
2022/11/05 16:03:08;;;;;;;8.30;4.70;;;;;;;8.38;93.22;99461.39;434882;1284;142347;-62
2022/11/05 16:13:33;;;;;;;6.00;4.10;;;;;;;8.35;93.39;99464.73;435651;1281;144303;-62
2022/11/05 16:23:45;;;;;;;9.60;5.00;;;;;;;8.31;93.66;99480.64;435080;1284;141414;-62
2022/11/05 16:33:51;;;;;;;8.10;4.90;;;;;;;8.31;93.71;99488.51;435854;1292;142250;-62
2022/11/05 16:43:59;;;;;;;8.40;5.70;;;;;;;8.29;93.89;99503.40;435873;1291;141363;-62
2022/11/05 16:54:06;;;;;;;15.40;5.20;;;;;;;8.29;94.02;99511.59;434925;1277;141886;-62
2022/11/05 17:04:13;;;;;;;15.10;6.20;;;;;;;8.30;94.31;99524.14;435520;1281;143513;-62
2022/11/05 17:14:19;;;;;;;10.50;5.40;;;;;;;8.32;94.41;99539.91;435787;1285;143092;-61
2022/11/05 17:24:25;;;;;;;17.80;6.80;;;;;;;8.33;94.75;99554.14;435081;1290;141816;-62
2022/11/05 17:34:31;;;;;;;15.50;7.30;;;;;;;8.32;94.66;99561.71;435758;1284;144180;-62
2022/11/05 17:44:37;;;;;;;11.10;6.50;;;;;;;8.24;94.95;99574.83;435166;1291;142633;-62
2022/11/05 17:54:43;;;;;;;11.90;6.20;;;;;;;8.16;95.08;99577.91;435903;1284;143440;-63
2022/11/05 18:04:49;;;;;;;13.20;6.30;;;;;;;8.03;95.15;99581.04;435968;1291;142544;-62
2022/11/05 18:14:55;;;;;;;12.90;7.50;;;;;;;7.89;95.25;99587.17;435231;1284;143783;-62
2022/11/05 18:25:00;;;;;;;12.50;6.50;;;;;;;7.78;95.26;99589.86;435929;1290;143673;-61
2022/11/05 18:35:07;;;;;;;13.30;7.80;;;;;;;7.73;95.32;99603.50;435977;1283;141504;-61
2022/11/05 18:45:13;;;;;;;10.30;7.30;;;;;;;7.69;95.25;99607.70;435189;1284;143251;-61
2022/11/05 18:55:19;;;;;;;11.80;7.10;;;;;;;7.63;95.18;99608.23;435771;1284;145773;-61
2022/11/05 19:05:25;;;;;;;13.40;7.20;;;;;;;7.57;95.35;99609.35;435962;1284;142594;-61
2022/11/05 19:15:34;;;;;;;15.10;8.60;;;;;;;7.52;95.47;99612.75;435442;1284;152267;-61
2022/11/05 19:25:40;;;;;;;11.70;8.40;;;;;;;7.47;95.35;99620.83;435918;1283;142704;-62
2022/11/05 19:35:46;;;;;;;15.10;8.70;;;;;;;7.41;95.45;99634.90;435171;1284;142362;-61
2022/11/05 19:45:51;;;;;;;13.20;8.60;;;;;;;7.36;95.49;99649.06;435895;1283;143669;-62
2022/11/05 19:55:57;;;;;;;14.20;8.60;;;;;;;7.32;95.57;99666.87;435899;1285;144803;-61
2022/11/05 20:06:08;;;;;;;14.30;7.30;;;;;;;7.30;95.61;99675.34;435188;1284;142557;-62
2022/11/05 20:16:22;;;;;;;12.90;7.10;;;;;;;7.28;95.87;99681.85;435970;1283;141561;-62
2022/11/05 20:26:29;;;;;;;13.50;8.50;;;;;;;7.26;95.84;99698.83;435652;1283;142266;-64
2022/11/05 20:36:35;;;;;;;14.90;9.10;;;;;;;7.23;95.96;99701.61;435835;1288;141305;-69
2022/11/05 20:46:41;;;;;;;14.30;9.70;;;;;;;7.17;95.95;99706.77;435981;1283;142730;-70
2022/11/05 20:56:47;;;;;;;21.40;16.40;;;;;;;7.01;95.82;99715.69;429287;1277;142145;-70
2022/11/05 21:06:53;;;;;;;25.80;17.30;;;;;;;6.81;96.05;99717.16;419828;1283;142760;-69
2022/11/05 21:16:58;;;;;;;20.70;14.60;;;;;;;6.62;96.22;99724.45;428878;1285;142384;-70
2022/11/05 21:27:04;;;;;;;23.00;12.60;;;;;;;6.45;96.45;99730.08;435198;1283;142869;-69
2022/11/05 21:37:10;;;;;;;19.00;14.00;;;;;;;6.29;96.73;99725.54;435933;1284;142184;-69
2022/11/05 21:47:16;;;;;;;23.00;18.40;;;;;;;6.16;96.82;99734.32;435945;1284;143080;-69
2022/11/05 22:07:44;;;;;;;23.60;15.60;;;;;;;5.83;97.34;99745.54;434468;1284;143278;-69
2022/11/05 22:17:52;;;;;;;23.80;16.60;;;;;;;5.77;97.67;99748.41;434118;1283;142691;-62
2022/11/05 22:27:58;;;;;;;24.30;16.90;;;;;;;5.69;97.70;99758.64;435942;1277;142074;-62
2022/11/05 22:38:04;;;;;;;28.50;19.70;;;;;;;5.60;97.85;99757.25;435894;1283;143229;-62
2022/11/05 22:48:10;;;;;;;23.70;16.60;;;;;;;5.52;97.85;99764.17;435228;1277;142419;-60
2022/11/05 22:58:16;;;;;;;22.00;14.30;;;;;;;5.41;97.85;99759.41;435973;1277;193554;-62
2022/11/05 23:29:17;;;;;;;17.50;11.10;;;;;;;5.31;98.94;99778.17;435703;1284;144189;-61
2022/11/05 23:39:22;;;;;;;19.80;10.90;;;;;;;5.43;99.39;99773.04;435166;1287;199104;-61
2022/11/05 23:49:28;;;;;;;14.20;10.80;;;;;;;5.43;99.33;99771.80;435930;1281;147034;-62
2022/11/05 23:59:34;;;;;;;19.60;11.20;;;;;;;5.37;99.22;99772.79;435162;1283;143562;-62
